createdAt,value
2022-10-01T00:02:08.823Z,84.13
2022-10-01T00:04:37.871Z,84.20
2022-10-01T00:07:09.868Z,84.33
2022-10-01T00:09:38.675Z,84.33
2022-10-01T00:12:07.493Z,84.19
2022-10-01T00:14:39.476Z,84.21
2022-10-01T00:17:07.656Z,84.09
2022-10-01T00:19:35.881Z,84.10
2022-10-01T00:22:04.071Z,84.24
2022-10-01T00:24:32.299Z,84.34
2022-10-01T00:27:00.808Z,84.42
2022-10-01T00:29:29.398Z,84.27
2022-10-01T00:31:58.313Z,84.22
2022-10-01T00:34:26.969Z,84.07
2022-10-01T00:36:55.318Z,84.01
2022-10-01T00:39:26.391Z,84.32
2022-10-01T00:41:54.731Z,84.10
2022-10-01T00:44:37.371Z,84.35
2022-10-01T00:47:20.354Z,84.67
2022-10-01T00:49:51.000Z,84.78
2022-10-01T00:52:25.314Z,84.45
2022-10-01T00:55:08.108Z,84.56
2022-10-01T00:57:36.253Z,84.51
2022-10-01T01:00:07.336Z,84.83
2022-10-01T01:05:47.863Z,84.63
2022-10-01T01:08:17.114Z,84.68
2022-10-01T01:11:29.483Z,84.43
2022-10-01T01:14:11.228Z,84.21
2022-10-01T01:16:49.062Z,84.62
2022-10-01T01:19:24.647Z,84.76
2022-10-01T01:22:00.418Z,84.60
2022-10-01T01:24:49.551Z,84.15
2022-10-01T01:27:37.897Z,84.70
2022-10-01T01:30:10.899Z,85.03
2022-10-01T01:32:53.350Z,85.09
2022-10-01T01:35:32.353Z,84.98
2022-10-01T01:38:06.655Z,84.99
2022-10-01T01:40:37.530Z,84.90
2022-10-01T01:43:19.678Z,85.11
2022-10-01T01:45:52.452Z,85.01
2022-10-01T01:48:23.904Z,85.05
2022-10-01T01:50:59.831Z,85.20
2022-10-01T01:53:32.286Z,85.09
2022-10-01T01:56:00.843Z,84.96
2022-10-01T01:58:29.341Z,84.70
2022-10-01T02:00:57.402Z,84.81
2022-10-01T02:03:29.300Z,84.29
2022-10-01T02:06:21.313Z,84.49
2022-10-01T02:09:15.204Z,84.65
2022-10-01T02:12:04.531Z,84.63
2022-10-01T02:14:47.515Z,84.45
2022-10-01T02:17:29.534Z,84.28
2022-10-01T02:20:01.463Z,84.32
2022-10-01T02:22:32.940Z,84.24
2022-10-01T02:25:05.007Z,84.18
2022-10-01T02:27:44.607Z,84.20
2022-10-01T02:30:13.447Z,84.36
2022-10-01T02:32:44.503Z,84.45
2022-10-01T02:35:14.771Z,84.57
2022-10-01T02:37:45.972Z,84.42
2022-10-01T02:40:16.380Z,84.61
2022-10-01T02:42:50.038Z,84.58
2022-10-01T02:45:23.137Z,84.79
2022-10-01T02:48:02.304Z,84.78
2022-10-01T02:50:43.039Z,84.35
2022-10-01T02:53:29.318Z,84.65
2022-10-01T02:55:59.615Z,84.98
2022-10-01T02:58:28.432Z,85.12
2022-10-01T03:00:56.648Z,85.05
2022-10-01T03:03:26.167Z,84.96
2022-10-01T03:05:54.406Z,85.19
2022-10-01T03:08:23.428Z,85.29
2022-10-01T03:10:51.529Z,85.41
2022-10-01T03:13:22.022Z,85.07
2022-10-01T03:15:50.321Z,85.12
2022-10-01T03:18:18.510Z,85.45
2022-10-01T03:20:48.256Z,85.57
2022-10-01T03:23:16.421Z,85.55
2022-10-01T03:25:44.705Z,85.47
2022-10-01T03:28:13.568Z,85.42
2022-10-01T03:30:41.975Z,85.60
2022-10-01T03:33:10.149Z,85.56
2022-10-01T03:35:38.418Z,85.69
2022-10-01T03:38:08.281Z,85.88
2022-10-01T03:40:39.050Z,86.07
2022-10-01T03:43:07.391Z,85.90
2022-10-01T03:45:35.453Z,85.75
2022-10-01T03:48:03.581Z,85.82
2022-10-01T03:50:31.796Z,85.89
2022-10-01T03:53:00.233Z,85.79
2022-10-01T03:55:28.479Z,86.27
2022-10-01T03:57:57.240Z,86.42
2022-10-01T04:00:26.179Z,86.43
2022-10-01T04:02:54.379Z,86.41
2022-10-01T04:05:22.724Z,86.32
2022-10-01T04:07:50.775Z,85.99
2022-10-01T04:10:19.260Z,86.05
2022-10-01T04:12:48.111Z,86.08
2022-10-01T04:15:16.930Z,85.97
2022-10-01T04:17:46.097Z,86.22
2022-10-01T04:20:14.653Z,86.15
2022-10-01T04:22:42.953Z,86.26
2022-10-01T04:25:11.834Z,86.50
2022-10-01T04:27:42.000Z,86.68
2022-10-01T04:30:10.734Z,86.65
2022-10-01T04:32:38.976Z,86.24
2022-10-01T04:35:11.767Z,86.05
2022-10-01T04:37:39.932Z,86.27
2022-10-01T04:40:10.767Z,86.27
2022-10-01T04:42:43.662Z,86.20
2022-10-01T04:45:11.969Z,86.46
2022-10-01T04:47:50.746Z,86.39
2022-10-01T04:50:19.312Z,86.61
2022-10-01T04:52:50.035Z,86.96
2022-10-01T04:55:20.066Z,86.78
2022-10-01T04:57:49.533Z,86.71
2022-10-01T05:00:20.722Z,86.49
2022-10-01T05:02:50.530Z,86.57
2022-10-01T05:05:20.873Z,86.76
2022-10-01T05:08:07.993Z,86.73
2022-10-01T05:10:55.971Z,86.73
2022-10-01T05:13:30.811Z,86.65
2022-10-01T05:16:03.846Z,86.78
2022-10-01T05:18:32.656Z,87.03
2022-10-01T05:21:08.057Z,86.84
2022-10-01T05:23:36.205Z,87.13
2022-10-01T05:26:05.868Z,87.15
2022-10-01T05:28:35.216Z,87.12
2022-10-01T05:31:04.762Z,86.81
2022-10-01T05:33:34.230Z,87.09
2022-10-01T05:36:05.186Z,86.97
2022-10-01T05:38:37.235Z,86.75
2022-10-01T05:41:05.963Z,87.00
2022-10-01T05:43:36.169Z,87.26
2022-10-01T05:46:05.706Z,86.98
2022-10-01T05:48:37.784Z,86.91
2022-10-01T05:51:08.525Z,86.84
2022-10-01T05:53:40.353Z,86.84
2022-10-01T05:56:08.978Z,86.95
2022-10-01T05:58:37.225Z,86.99
2022-10-01T06:01:05.562Z,87.20
2022-10-01T06:03:33.694Z,87.09
2022-10-01T06:06:02.026Z,87.21
2022-10-01T06:08:30.179Z,87.27
2022-10-01T06:11:02.425Z,87.30
2022-10-01T06:13:30.943Z,87.31
2022-10-01T06:15:59.154Z,87.36
2022-10-01T06:18:27.620Z,87.23
2022-10-01T06:20:58.954Z,86.96
2022-10-01T06:23:27.156Z,87.12
2022-10-01T06:25:55.391Z,86.94
2022-10-01T06:28:23.476Z,86.99
2022-10-01T06:30:51.738Z,86.75
2022-10-01T06:33:20.823Z,86.61
2022-10-01T06:35:51.183Z,86.95
2022-10-01T06:38:22.076Z,86.81
2022-10-01T06:40:57.451Z,86.61
2022-10-01T06:43:28.590Z,86.85
2022-10-01T06:45:57.763Z,86.97
2022-10-01T06:48:26.000Z,87.19
2022-10-01T06:50:56.016Z,87.13
2022-10-01T06:53:24.634Z,87.25
2022-10-01T06:55:52.891Z,86.84
2022-10-01T06:58:23.406Z,86.90
2022-10-01T07:00:51.537Z,86.79
2022-10-01T07:03:21.919Z,86.65
2022-10-01T07:05:50.386Z,86.90
2022-10-01T07:08:19.036Z,86.70
2022-10-01T07:10:47.217Z,87.06
2022-10-01T07:13:18.080Z,86.94
2022-10-01T07:15:46.467Z,86.63
2022-10-01T07:18:15.087Z,86.49
2022-10-01T07:20:43.313Z,86.61
2022-10-01T07:23:12.932Z,86.72
2022-10-01T07:25:42.149Z,86.42
2022-10-01T07:28:16.909Z,86.31
2022-10-01T07:31:12.699Z,85.94
2022-10-01T07:33:41.993Z,85.83
2022-10-01T07:36:11.605Z,85.99
2022-10-01T07:38:39.660Z,85.98
2022-10-01T07:41:07.766Z,85.98
2022-10-01T07:43:36.637Z,85.79
2022-10-01T07:46:05.246Z,85.01
2022-10-01T07:48:33.602Z,85.51
2022-10-01T07:51:01.805Z,85.71
2022-10-01T07:53:30.034Z,85.78
2022-10-01T07:56:01.541Z,85.77
2022-10-01T07:58:29.852Z,85.72
2022-10-01T08:01:00.182Z,85.57
2022-10-01T08:03:28.358Z,85.62
2022-10-01T08:05:56.849Z,85.73
2022-10-01T08:08:25.146Z,85.77
2022-10-01T08:10:53.411Z,85.51
2022-10-01T08:13:25.099Z,85.31
2022-10-01T08:15:56.158Z,84.97
2022-10-01T08:18:24.494Z,84.91
2022-10-01T08:20:52.677Z,84.38
2022-10-01T08:23:21.767Z,84.23
2022-10-01T08:25:49.926Z,84.07
2022-10-01T08:28:18.353Z,83.72
2022-10-01T08:30:46.609Z,84.07
2022-10-01T08:33:15.290Z,84.16
2022-10-01T08:35:43.866Z,84.29
2022-10-01T08:38:13.101Z,83.95
2022-10-01T08:40:47.347Z,83.61
2022-10-01T08:43:18.742Z,83.61
2022-10-01T08:45:53.053Z,82.93
2022-10-01T08:48:58.859Z,82.27
2022-10-01T08:51:52.053Z,81.57
2022-10-01T08:54:42.985Z,81.39
2022-10-01T08:57:17.244Z,81.31
2022-10-01T08:59:50.011Z,81.61
2022-10-01T09:02:29.203Z,81.51
2022-10-01T09:05:02.136Z,80.85
2022-10-01T09:07:45.938Z,80.84
2022-10-01T09:10:32.140Z,80.72
2022-10-01T09:13:18.761Z,81.03
2022-10-01T09:16:18.670Z,80.93
2022-10-01T09:18:53.044Z,79.71
2022-10-01T09:21:53.892Z,79.26
2022-10-01T09:24:38.440Z,79.89
2022-10-01T09:27:33.756Z,79.85
2022-10-01T09:30:14.029Z,80.43
2022-10-01T09:32:48.264Z,80.14
2022-10-01T09:35:23.728Z,79.88
2022-10-01T09:38:02.503Z,79.56
2022-10-01T09:40:38.710Z,79.66
2022-10-01T09:43:09.698Z,78.89
2022-10-01T09:45:38.996Z,78.52
2022-10-01T09:48:24.332Z,78.49
2022-10-01T09:50:59.076Z,77.95
2022-10-01T09:53:48.169Z,77.43
2022-10-01T09:56:29.875Z,77.37
2022-10-01T09:59:02.073Z,77.59
2022-10-01T10:01:44.492Z,77.90
2022-10-01T10:04:21.025Z,77.24
2022-10-01T10:06:50.930Z,76.81
2022-10-01T10:09:25.916Z,76.21
2022-10-01T10:11:56.805Z,75.81
2022-10-01T10:14:41.279Z,75.60
2022-10-01T10:17:18.002Z,76.17
2022-10-01T10:19:51.775Z,76.19
2022-10-01T10:22:24.996Z,76.32
2022-10-01T10:24:56.040Z,76.14
2022-10-01T10:27:30.781Z,76.59
2022-10-01T10:30:14.102Z,76.10
2022-10-01T10:32:45.708Z,75.53
2022-10-01T10:35:23.832Z,74.38
2022-10-01T10:38:00.253Z,75.16
2022-10-01T10:40:34.736Z,74.96
2022-10-01T10:43:03.330Z,74.60
2022-10-01T10:45:39.042Z,74.40
2022-10-01T10:48:15.410Z,74.26
2022-10-01T10:50:46.532Z,74.53
2022-10-01T10:53:27.614Z,75.13
2022-10-01T10:56:01.445Z,74.27
2022-10-01T10:58:33.353Z,73.80
2022-10-01T11:01:09.987Z,73.52
2022-10-01T11:03:44.491Z,73.21
2022-10-01T11:06:15.153Z,73.20
2022-10-01T11:08:44.035Z,73.27
2022-10-01T11:11:42.983Z,72.89
2022-10-01T11:14:22.729Z,73.46
2022-10-01T11:17:16.795Z,73.86
2022-10-01T11:20:10.763Z,74.40
2022-10-01T11:22:57.643Z,73.78
2022-10-01T11:25:31.655Z,73.60
2022-10-01T11:28:18.957Z,73.49
2022-10-01T11:30:50.200Z,73.92
2022-10-01T11:33:52.198Z,73.61
2022-10-01T11:36:36.053Z,73.76
2022-10-01T11:39:17.144Z,72.90
2022-10-01T11:41:47.876Z,72.76
2022-10-01T11:44:25.647Z,72.06
2022-10-01T11:47:02.158Z,71.27
2022-10-01T11:49:48.116Z,71.18
2022-10-01T11:52:25.078Z,71.01
2022-10-01T11:55:20.754Z,71.54
2022-10-01T11:58:14.145Z,71.80
2022-10-01T12:00:53.184Z,71.63
2022-10-01T12:03:28.895Z,71.84
2022-10-01T12:05:58.288Z,71.36
2022-10-01T12:08:31.965Z,71.37
2022-10-01T12:11:11.875Z,71.70
2022-10-01T12:13:56.669Z,71.51
2022-10-01T12:16:37.151Z,71.47
2022-10-01T12:19:14.846Z,71.56
2022-10-01T12:21:56.600Z,71.53
2022-10-01T12:24:34.111Z,71.79
2022-10-01T12:27:24.090Z,72.14
2022-10-01T12:30:07.546Z,72.30
2022-10-01T12:32:47.485Z,71.85
2022-10-01T12:35:35.581Z,72.25
2022-10-01T12:38:13.142Z,72.38
2022-10-01T12:40:51.383Z,71.97
2022-10-01T12:43:57.547Z,72.31
2022-10-01T12:46:30.524Z,72.81
2022-10-01T12:49:14.754Z,72.79
2022-10-01T12:51:56.450Z,72.85
2022-10-01T12:54:47.730Z,73.03
2022-10-01T12:57:33.091Z,73.24
2022-10-01T13:00:19.974Z,73.32
2022-10-01T13:03:10.073Z,73.14
2022-10-01T13:05:56.588Z,73.22
2022-10-01T13:08:49.100Z,73.58
2022-10-01T13:11:37.665Z,73.46
2022-10-01T13:14:11.948Z,73.84
2022-10-01T13:17:26.236Z,73.62
2022-10-01T13:20:09.207Z,73.65
2022-10-01T13:22:50.954Z,73.79
2022-10-01T13:25:51.374Z,73.71
2022-10-01T13:28:30.669Z,73.85
2022-10-01T13:31:15.090Z,73.73
2022-10-01T13:33:55.084Z,73.69
2022-10-01T13:36:31.880Z,73.98
2022-10-01T13:39:00.636Z,74.32
2022-10-01T13:41:32.505Z,74.27
2022-10-01T13:44:09.461Z,74.18
2022-10-01T13:46:51.546Z,74.57
2022-10-01T13:49:43.216Z,74.70
2022-10-01T13:52:20.115Z,74.63
2022-10-01T13:54:52.556Z,74.59
2022-10-01T13:57:26.467Z,74.81
2022-10-01T14:00:02.751Z,74.87
2022-10-01T14:02:39.687Z,75.15
2022-10-01T14:05:42.691Z,75.25
2022-10-01T14:08:25.258Z,75.49
2022-10-01T14:11:33.588Z,75.65
2022-10-01T14:14:31.260Z,75.76
2022-10-01T14:17:00.390Z,75.83
2022-10-01T14:19:29.084Z,76.18
2022-10-01T14:22:34.528Z,75.91
2022-10-01T14:25:23.769Z,76.04
2022-10-01T14:28:07.013Z,75.66
2022-10-01T14:31:14.491Z,76.33
2022-10-01T14:34:02.866Z,76.26
2022-10-01T14:36:40.177Z,76.32
2022-10-01T14:39:21.991Z,76.38
2022-10-01T14:41:52.762Z,76.38
2022-10-01T14:44:25.664Z,76.54
2022-10-01T14:46:59.554Z,76.35
2022-10-01T14:49:30.631Z,76.24
2022-10-01T14:52:03.135Z,76.61
2022-10-01T14:54:42.336Z,76.54
2022-10-01T14:57:27.012Z,76.57
2022-10-01T14:59:57.505Z,76.62
2022-10-01T15:02:33.916Z,76.74
2022-10-01T15:05:39.915Z,76.90
2022-10-01T15:08:48.008Z,77.09
2022-10-01T15:11:29.099Z,76.83
2022-10-01T15:14:06.863Z,77.09
2022-10-01T15:16:36.692Z,77.18
2022-10-01T15:19:24.052Z,77.10
2022-10-01T15:21:57.999Z,77.14
2022-10-01T15:24:47.057Z,77.25
2022-10-01T15:27:19.729Z,77.24
2022-10-01T15:29:56.041Z,77.21
2022-10-01T15:32:26.954Z,77.29
2022-10-01T15:34:58.168Z,77.28
2022-10-01T15:37:35.940Z,77.49
2022-10-01T15:40:06.780Z,77.57
2022-10-01T15:42:36.078Z,77.44
2022-10-01T15:45:07.442Z,77.78
2022-10-01T15:47:41.386Z,77.63
2022-10-01T15:50:12.579Z,77.77
2022-10-01T15:53:06.948Z,78.05
2022-10-01T15:55:41.430Z,77.86
2022-10-01T15:58:19.048Z,78.23
2022-10-01T16:00:47.590Z,78.16
2022-10-01T16:03:31.391Z,78.56
2022-10-01T16:06:05.275Z,78.43
2022-10-01T16:08:48.919Z,78.43
2022-10-01T16:11:20.906Z,78.48
2022-10-01T16:13:52.715Z,78.99
2022-10-01T16:16:24.769Z,78.92
2022-10-01T16:19:21.938Z,79.33
2022-10-01T16:22:19.567Z,79.36
2022-10-01T16:24:52.039Z,79.49
2022-10-01T16:27:22.109Z,79.59
2022-10-01T16:29:53.474Z,79.80
2022-10-01T16:32:21.841Z,79.85
2022-10-01T16:34:50.414Z,80.04
2022-10-01T16:37:18.772Z,80.13
2022-10-01T16:39:47.131Z,80.10
2022-10-01T16:42:24.923Z,80.29
2022-10-01T16:44:53.325Z,80.44
2022-10-01T16:47:21.354Z,80.80
2022-10-01T16:49:52.818Z,80.56
2022-10-01T16:52:21.437Z,80.66
2022-10-01T16:54:49.639Z,80.88
2022-10-01T16:57:17.998Z,80.74
2022-10-01T16:59:46.325Z,80.70
2022-10-01T17:02:15.335Z,81.13
2022-10-01T17:04:43.716Z,81.12
2022-10-01T17:07:12.036Z,81.04
2022-10-01T17:09:41.132Z,81.31
2022-10-01T17:12:09.743Z,81.15
2022-10-01T17:14:40.675Z,81.36
2022-10-01T17:17:08.916Z,81.55
2022-10-01T17:19:37.182Z,81.39
2022-10-01T17:22:05.635Z,81.77
2022-10-01T17:24:33.668Z,81.86
2022-10-01T17:27:02.019Z,81.91
2022-10-01T17:29:32.386Z,82.05
2022-10-01T17:32:00.515Z,82.02
2022-10-01T17:34:28.896Z,81.97
2022-10-01T17:36:59.898Z,82.02
2022-10-01T17:39:27.944Z,81.94
2022-10-01T17:41:56.094Z,82.07
2022-10-01T17:44:24.365Z,82.12
2022-10-01T17:46:52.488Z,81.97
2022-10-01T17:49:20.821Z,82.15
2022-10-01T17:51:49.581Z,82.26
2022-10-01T17:54:17.872Z,82.37
2022-10-01T17:56:46.079Z,82.36
2022-10-01T17:59:15.027Z,82.26
2022-10-01T18:01:43.706Z,82.28
2022-10-01T18:04:15.141Z,82.40
2022-10-01T18:06:43.818Z,82.32
2022-10-01T18:09:11.920Z,82.57
2022-10-01T18:11:41.034Z,82.60
2022-10-01T18:14:09.422Z,82.72
2022-10-01T18:16:38.464Z,82.77
2022-10-01T18:21:56.122Z,82.88
2022-10-01T18:24:24.719Z,82.78
2022-10-01T18:26:53.071Z,83.21
2022-10-01T18:29:23.926Z,83.17
2022-10-01T18:32:15.020Z,82.87
2022-10-01T18:34:57.929Z,82.87
2022-10-01T18:37:39.064Z,82.18
2022-10-01T18:40:13.633Z,81.96
2022-10-01T18:43:06.631Z,82.01
2022-10-01T18:45:59.044Z,82.25
2022-10-01T18:48:45.598Z,82.41
2022-10-01T18:51:26.009Z,82.37
2022-10-01T18:54:22.035Z,82.71
2022-10-01T18:57:05.381Z,83.00
2022-10-01T18:59:47.045Z,82.93
2022-10-01T19:02:30.318Z,83.44
2022-10-01T19:05:05.455Z,83.44
2022-10-01T19:08:04.632Z,83.49
2022-10-01T19:10:41.286Z,83.48
2022-10-01T19:13:20.576Z,84.02
2022-10-01T19:16:26.341Z,83.96
2022-10-01T19:19:25.563Z,84.00
2022-10-01T19:22:01.151Z,83.96
2022-10-01T19:24:41.520Z,83.88
2022-10-01T19:30:10.142Z,84.26
2022-10-01T19:33:08.854Z,84.21
2022-10-01T19:35:50.336Z,84.24
2022-10-01T19:38:41.017Z,84.36
2022-10-01T19:41:45.102Z,84.45
2022-10-01T19:44:52.297Z,84.32
2022-10-01T19:47:44.040Z,84.45
2022-10-01T19:50:29.783Z,84.51
2022-10-01T19:53:02.451Z,84.69
2022-10-01T19:55:38.880Z,84.71
2022-10-01T19:58:18.635Z,84.45
2022-10-01T20:00:51.684Z,84.81
2022-10-01T20:03:47.053Z,85.02
2022-10-01T20:06:25.234Z,84.80
2022-10-01T20:09:00.285Z,84.67
2022-10-01T20:11:59.303Z,84.79
2022-10-01T20:14:57.358Z,84.90
2022-10-01T20:17:30.884Z,84.88
2022-10-01T20:20:16.855Z,84.67
2022-10-01T20:22:56.773Z,84.79
2022-10-01T20:25:32.209Z,84.84
2022-10-01T20:28:19.479Z,85.00
2022-10-01T20:30:58.297Z,84.86
2022-10-01T20:34:08.510Z,84.87
2022-10-01T20:36:56.820Z,84.77
2022-10-01T20:39:31.329Z,84.80
2022-10-01T20:42:01.057Z,84.86
2022-10-01T20:44:36.373Z,85.02
2022-10-01T20:47:16.507Z,84.87
2022-10-01T20:49:51.640Z,84.71
2022-10-01T20:52:22.660Z,84.82
2022-10-01T20:54:54.547Z,84.92
2022-10-01T20:57:41.865Z,84.90
2022-10-01T21:00:24.608Z,85.17
2022-10-01T21:03:11.011Z,85.26
2022-10-01T21:05:47.046Z,85.29
2022-10-01T21:08:47.366Z,85.41
2022-10-01T21:11:37.341Z,85.52
2022-10-01T21:14:23.027Z,85.54
2022-10-01T21:17:15.472Z,85.48
2022-10-01T21:20:11.758Z,85.53
2022-10-01T21:23:01.682Z,85.40
2022-10-01T21:25:35.709Z,85.45
2022-10-01T21:28:42.548Z,85.88
2022-10-01T21:31:32.309Z,85.66
2022-10-01T21:34:14.503Z,85.72
2022-10-01T21:36:59.046Z,85.78
2022-10-01T21:39:32.222Z,85.81
2022-10-01T21:42:42.387Z,85.88
2022-10-01T21:45:42.154Z,86.02
2022-10-01T21:48:19.282Z,86.22
2022-10-01T21:50:53.341Z,86.14
2022-10-01T21:53:55.508Z,86.29
2022-10-01T21:56:46.844Z,86.26
2022-10-01T21:59:39.160Z,86.13
2022-10-01T22:02:19.661Z,86.15
2022-10-01T22:04:54.555Z,86.37
2022-10-01T22:07:32.803Z,86.48
2022-10-01T22:10:09.739Z,86.52
2022-10-01T22:12:42.685Z,86.64
2022-10-01T22:15:31.468Z,86.64
2022-10-01T22:18:02.236Z,86.69
2022-10-01T22:20:32.431Z,86.59
2022-10-01T22:23:06.696Z,86.59
2022-10-01T22:25:40.484Z,86.57
2022-10-01T22:28:16.787Z,86.58
2022-10-01T22:30:48.202Z,86.60
2022-10-01T22:33:22.264Z,86.56
2022-10-01T22:36:05.461Z,86.63
2022-10-01T22:38:46.560Z,86.81
2022-10-01T22:41:41.497Z,87.01
2022-10-01T22:44:19.281Z,87.25
2022-10-01T22:46:58.556Z,87.37
2022-10-01T22:49:50.134Z,87.28
2022-10-01T22:52:33.934Z,87.39
2022-10-01T22:55:24.681Z,87.50
2022-10-01T22:57:52.887Z,87.45
2022-10-01T23:00:21.436Z,87.47
2022-10-01T23:03:23.792Z,87.37
2022-10-01T23:06:15.439Z,87.35
2022-10-01T23:08:47.197Z,87.30
2022-10-01T23:11:25.015Z,87.41
2022-10-01T23:14:06.443Z,87.45
2022-10-01T23:17:04.678Z,87.53
2022-10-01T23:19:52.810Z,87.59
2022-10-01T23:22:44.491Z,87.79
2022-10-01T23:25:18.170Z,87.87
2022-10-01T23:28:19.300Z,87.70
2022-10-01T23:30:56.263Z,87.80
2022-10-01T23:33:45.134Z,87.75
2022-10-01T23:36:16.857Z,87.69
2022-10-01T23:38:56.344Z,87.98
2022-10-01T23:41:41.210Z,87.83
2022-10-01T23:44:52.911Z,87.82
2022-10-01T23:47:36.524Z,88.06
2022-10-01T23:50:08.482Z,87.93
2022-10-01T23:52:42.776Z,87.97
2022-10-01T23:55:54.436Z,88.15
2022-10-01T23:58:24.256Z,87.91
